createdAt,value
2019-03-12T00:00:15.813Z,3.60
2019-03-12T00:02:44.383Z,3.60
2019-03-12T00:05:12.867Z,3.50
2019-03-12T00:07:41.356Z,3.50
2019-03-12T00:10:09.955Z,3.50
2019-03-12T00:12:38.493Z,3.40
2019-03-12T00:15:07.755Z,3.40
2019-03-12T00:17:36.270Z,3.40
2019-03-12T00:20:06.543Z,3.30
2019-03-12T00:22:34.995Z,3.30
2019-03-12T00:25:03.488Z,3.20
2019-03-12T00:27:31.970Z,3.20
2019-03-12T00:30:00.464Z,3.10
2019-03-12T00:32:29.121Z,3.10
2019-03-12T00:34:57.707Z,3.10
2019-03-12T00:37:26.148Z,3.10
2019-03-12T00:39:54.591Z,3.10
2019-03-12T00:42:23.051Z,3.10
2019-03-12T00:44:51.650Z,3.10
2019-03-12T00:47:20.088Z,3.00
2019-03-12T00:49:48.619Z,3.10
2019-03-12T00:52:17.053Z,3.10
2019-03-12T00:54:45.505Z,3.10
2019-03-12T00:57:14.091Z,3.00
2019-03-12T00:59:42.712Z,3.00
2019-03-12T01:02:11.132Z,3.00
2019-03-12T01:04:39.581Z,2.90
2019-03-12T01:07:08.001Z,2.80
2019-03-12T01:09:36.448Z,2.80
2019-03-12T01:12:05.106Z,2.70
2019-03-12T01:14:33.568Z,2.70
2019-03-12T01:17:02.002Z,2.70
2019-03-12T01:19:30.539Z,2.70
2019-03-12T01:21:58.975Z,2.70
2019-03-12T01:24:27.420Z,2.70
2019-03-12T01:26:55.859Z,2.70
2019-03-12T01:29:24.303Z,2.80
2019-03-12T01:31:52.742Z,2.80
2019-03-12T01:34:21.186Z,2.80
2019-03-12T01:36:49.628Z,2.80
2019-03-12T01:39:18.035Z,2.80
2019-03-12T01:41:46.480Z,2.80
2019-03-12T01:44:14.973Z,2.80
2019-03-12T01:46:43.435Z,2.80
2019-03-12T01:49:11.909Z,2.80
2019-03-12T01:51:40.368Z,2.80
2019-03-12T01:54:08.796Z,2.80
2019-03-12T01:56:37.244Z,2.80
2019-03-12T01:59:05.742Z,2.70
2019-03-12T02:01:34.181Z,2.70
2019-03-12T02:04:02.674Z,2.80
2019-03-12T02:06:31.190Z,2.70
2019-03-12T02:08:59.610Z,2.70
2019-03-12T02:11:28.062Z,2.70
2019-03-12T02:13:56.566Z,2.70
2019-03-12T02:16:25.009Z,2.70
2019-03-12T02:18:53.431Z,2.70
2019-03-12T02:21:21.899Z,2.70
2019-03-12T02:23:50.468Z,2.60
2019-03-12T02:26:18.955Z,2.50
2019-03-12T02:28:47.411Z,2.40
2019-03-12T02:31:15.840Z,2.40
2019-03-12T02:33:44.289Z,2.30
2019-03-12T02:36:12.728Z,2.20
2019-03-12T02:38:41.242Z,2.20
2019-03-12T02:41:09.799Z,2.10
2019-03-12T02:43:38.251Z,2.00
2019-03-12T02:46:06.704Z,2.00
2019-03-12T02:48:35.227Z,2.00
2019-03-12T02:51:03.722Z,1.90
2019-03-12T02:53:32.165Z,1.90
2019-03-12T02:56:01.995Z,1.80
2019-03-12T02:58:30.759Z,1.80
2019-03-12T03:00:59.220Z,1.80
2019-03-12T03:03:27.677Z,1.70
2019-03-12T03:06:09.985Z,1.70
2019-03-12T03:08:38.601Z,1.70
2019-03-12T03:11:07.021Z,1.60
2019-03-12T03:13:35.459Z,1.60
2019-03-12T03:16:03.899Z,1.60
2019-03-12T03:18:32.335Z,1.60
2019-03-12T03:21:00.761Z,1.50
2019-03-12T03:23:29.207Z,1.50
2019-03-12T03:25:57.628Z,1.50
2019-03-12T03:28:26.228Z,1.50
2019-03-12T03:30:54.750Z,1.60
2019-03-12T03:33:23.180Z,1.60
2019-03-12T03:35:51.616Z,1.70
2019-03-12T03:38:20.052Z,1.80
2019-03-12T03:40:48.507Z,1.80
2019-03-12T03:43:16.994Z,1.90
2019-03-12T03:45:45.446Z,2.00
2019-03-12T03:48:13.939Z,2.00
2019-03-12T03:50:42.380Z,2.00
2019-03-12T03:53:10.800Z,2.00
2019-03-12T03:55:39.253Z,2.10
2019-03-12T03:58:07.692Z,2.10
2019-03-12T04:00:36.256Z,2.40
2019-03-12T04:03:04.679Z,2.20
2019-03-12T04:05:33.117Z,2.30
2019-03-12T04:08:01.540Z,2.40
2019-03-12T04:10:30.013Z,2.40
2019-03-12T04:12:58.438Z,2.50
2019-03-12T04:15:27.037Z,2.50
2019-03-12T04:17:55.449Z,2.60
2019-03-12T04:20:23.910Z,2.60
2019-03-12T04:22:52.398Z,2.60
2019-03-12T04:25:20.832Z,2.60
2019-03-12T04:27:49.292Z,2.60
2019-03-12T04:30:18.768Z,2.50
2019-03-12T04:32:47.220Z,2.50
2019-03-12T04:35:21.395Z,2.50
2019-03-12T04:37:49.875Z,2.60
2019-03-12T04:40:18.380Z,2.60
2019-03-12T04:42:46.821Z,2.70
2019-03-12T04:45:18.090Z,2.70
2019-03-12T04:47:46.582Z,2.80
2019-03-12T04:50:16.059Z,2.80
2019-03-12T04:52:44.497Z,2.90
2019-03-12T04:55:16.527Z,2.90
2019-03-12T04:57:44.973Z,3.00
2019-03-12T05:00:18.506Z,3.00
2019-03-12T05:02:47.186Z,3.00
2019-03-12T05:05:16.013Z,3.10
2019-03-12T05:07:44.459Z,3.10
2019-03-12T05:10:17.195Z,3.10
2019-03-12T05:12:45.638Z,3.10
2019-03-12T05:15:18.766Z,3.10
2019-03-12T05:17:47.221Z,3.10
2019-03-12T05:20:17.239Z,3.10
2019-03-12T05:22:45.691Z,3.00
2019-03-12T05:25:14.955Z,3.00
2019-03-12T05:27:43.747Z,3.00
2019-03-12T05:30:16.971Z,3.00
2019-03-12T05:32:45.399Z,3.10
2019-03-12T05:35:14.353Z,3.10
2019-03-12T05:37:42.783Z,3.20
2019-03-12T05:40:15.397Z,3.20
2019-03-12T05:42:44.234Z,3.30
2019-03-12T05:45:14.290Z,3.40
2019-03-12T05:47:42.865Z,3.50
2019-03-12T05:50:13.911Z,3.50
2019-03-12T05:52:42.359Z,3.60
2019-03-12T05:55:12.708Z,3.60
2019-03-12T05:57:41.135Z,3.70
2019-03-12T06:00:25.219Z,3.80
2019-03-12T06:02:53.679Z,3.90
2019-03-12T06:05:22.152Z,3.90
2019-03-12T06:07:50.700Z,4.00
2019-03-12T06:10:19.322Z,4.00
2019-03-12T06:12:47.811Z,4.00
2019-03-12T06:15:17.002Z,4.00
2019-03-12T06:17:45.594Z,4.10
2019-03-12T06:20:14.968Z,4.10
2019-03-12T06:22:43.516Z,4.20
2019-03-12T06:25:12.214Z,4.30
2019-03-12T06:27:40.651Z,4.40
2019-03-12T06:30:17.535Z,4.40
2019-03-12T06:32:47.604Z,4.50
2019-03-12T06:35:17.696Z,4.50
2019-03-12T06:37:53.802Z,4.60
2019-03-12T06:40:23.890Z,4.60
2019-03-12T06:43:09.247Z,4.70
2019-03-12T06:45:51.376Z,4.70
2019-03-12T06:48:36.471Z,4.80
2019-03-12T06:51:06.634Z,4.90
2019-03-12T06:53:52.795Z,5.00
2019-03-12T06:56:25.998Z,5.00
2019-03-12T06:59:11.422Z,5.00
2019-03-12T07:01:53.459Z,5.10
2019-03-12T07:04:39.513Z,5.20
2019-03-12T07:07:12.875Z,5.20
2019-03-12T07:09:59.497Z,5.30
2019-03-12T07:12:45.769Z,5.40
2019-03-12T07:15:15.843Z,5.50
2019-03-12T07:17:45.998Z,5.60
2019-03-12T07:20:28.366Z,5.60
2019-03-12T07:23:14.734Z,5.70
2019-03-12T07:25:50.736Z,5.70
2019-03-12T07:28:28.227Z,5.90
2019-03-12T07:31:14.916Z,6.00
2019-03-12T07:33:48.042Z,6.10
2019-03-12T07:36:36.208Z,6.20
2019-03-12T07:39:23.903Z,6.30
2019-03-12T07:42:09.067Z,6.30
2019-03-12T07:44:51.111Z,6.30
2019-03-12T07:47:37.466Z,6.50
2019-03-12T07:50:26.682Z,6.50
2019-03-12T07:52:59.764Z,6.50
2019-03-12T07:55:48.356Z,6.70
2019-03-12T07:58:20.855Z,6.60
2019-03-12T08:01:07.239Z,6.60
2019-03-12T08:03:40.385Z,6.60
2019-03-12T08:06:10.543Z,6.60
2019-03-12T08:08:58.599Z,6.80
2019-03-12T08:11:28.731Z,6.90
2019-03-12T08:14:10.903Z,7.00
2019-03-12T08:16:49.806Z,7.10
2019-03-12T08:19:19.895Z,7.20
2019-03-12T08:21:56.111Z,7.40
2019-03-12T08:24:26.211Z,7.40
2019-03-12T08:26:59.069Z,7.50
2019-03-12T08:29:41.131Z,7.70
2019-03-12T08:32:14.279Z,7.90
2019-03-12T08:34:44.377Z,8.10
2019-03-12T08:37:17.216Z,8.20
2019-03-12T08:39:56.452Z,8.20
2019-03-12T08:42:29.499Z,8.10
2019-03-12T08:45:05.511Z,8.10
2019-03-12T08:47:35.679Z,8.10
2019-03-12T08:50:14.044Z,8.20
2019-03-12T08:52:44.352Z,8.40
2019-03-12T08:55:26.524Z,8.40
2019-03-12T08:57:59.608Z,8.60
2019-03-12T09:00:29.701Z,8.70
2019-03-12T09:03:16.375Z,8.80
2019-03-12T09:05:46.746Z,9.00
2019-03-12T09:08:19.579Z,8.90
2019-03-12T09:10:49.723Z,9.20
2019-03-12T09:13:22.582Z,9.20
2019-03-12T09:16:01.691Z,9.00
2019-03-12T09:18:43.885Z,9.30
2019-03-12T09:21:26.136Z,9.30
2019-03-12T09:23:56.354Z,9.60
2019-03-12T09:26:26.448Z,9.50
2019-03-12T09:28:56.615Z,9.80
2019-03-12T09:31:35.739Z,9.80
2019-03-12T09:34:05.960Z,9.70
2019-03-12T09:36:52.329Z,9.90
2019-03-12T09:39:37.738Z,9.80
2019-03-12T09:42:23.139Z,9.70
2019-03-12T09:44:53.211Z,9.70
2019-03-12T09:47:26.105Z,9.80
2019-03-12T09:49:56.269Z,9.80
2019-03-12T09:52:29.287Z,10.00
2019-03-12T09:55:16.084Z,10.10
2019-03-12T09:57:46.168Z,9.90
2019-03-12T10:00:35.479Z,10.00
2019-03-12T10:03:05.749Z,10.10
2019-03-12T10:05:44.897Z,10.00
2019-03-12T10:08:26.954Z,9.80
2019-03-12T10:11:05.929Z,9.70
2019-03-12T10:13:54.195Z,9.80
2019-03-12T10:16:40.598Z,9.80
2019-03-12T10:19:13.539Z,10.00
2019-03-12T10:21:46.442Z,9.70
2019-03-12T10:24:16.611Z,9.70
2019-03-12T10:26:55.818Z,9.80
2019-03-12T10:29:28.979Z,9.80
2019-03-12T10:32:15.536Z,9.60
2019-03-12T10:34:57.770Z,9.80
2019-03-12T10:37:31.023Z,10.00
2019-03-12T10:40:08.632Z,10.20
2019-03-12T10:43:12.216Z,10.50
2019-03-12T10:45:42.296Z,10.60
2019-03-12T10:48:11.807Z,10.70
2019-03-12T10:50:40.416Z,11.00
2019-03-12T10:53:08.836Z,11.00
2019-03-12T10:55:37.307Z,10.90
2019-03-12T10:58:06.009Z,11.00
2019-03-12T11:00:34.723Z,11.00
2019-03-12T11:03:03.303Z,10.80
2019-03-12T11:05:44.996Z,10.80
2019-03-12T11:08:02.163Z,10.80
2019-03-12T11:10:30.746Z,10.70
2019-03-12T11:12:59.273Z,10.70
2019-03-12T11:15:27.812Z,10.80
2019-03-12T11:17:56.251Z,10.80
2019-03-12T11:20:28.067Z,10.90
2019-03-12T11:22:56.509Z,10.80
2019-03-12T11:25:27.722Z,10.90
2019-03-12T11:27:55.190Z,10.70
2019-03-12T11:30:23.761Z,10.70
2019-03-12T11:32:52.235Z,10.80
2019-03-12T11:35:20.668Z,10.90
2019-03-12T11:37:49.325Z,10.70
2019-03-12T11:40:22.782Z,10.90
2019-03-12T11:42:51.617Z,11.00
2019-03-12T11:45:31.057Z,11.00
2019-03-12T11:47:50.574Z,11.00
2019-03-12T11:50:23.552Z,11.10
2019-03-12T11:52:57.049Z,11.00
2019-03-12T11:55:22.457Z,11.10
2019-03-12T11:57:51.021Z,11.10
2019-03-12T12:00:28.774Z,11.50
2019-03-12T12:03:00.152Z,11.40
2019-03-12T12:05:28.136Z,11.20
2019-03-12T12:07:56.742Z,11.20
2019-03-12T12:10:25.588Z,11.30
2019-03-12T12:12:54.173Z,11.30
2019-03-12T12:15:23.272Z,11.60
2019-03-12T12:17:51.815Z,11.60
2019-03-12T12:20:29.558Z,11.60
2019-03-12T12:22:50.486Z,11.70
2019-03-12T12:25:19.855Z,11.80
2019-03-12T12:27:48.384Z,11.50
2019-03-12T12:30:20.103Z,11.40
2019-03-12T12:32:48.547Z,11.40
2019-03-12T12:35:17.237Z,11.40
2019-03-12T12:37:45.740Z,11.40
2019-03-12T12:40:21.080Z,11.60
2019-03-12T12:42:49.544Z,11.60
2019-03-12T12:45:26.959Z,11.40
2019-03-12T12:47:55.396Z,11.50
2019-03-12T12:50:24.184Z,11.60
2019-03-12T12:52:52.615Z,11.60
2019-03-12T12:55:21.127Z,11.60
2019-03-12T12:57:49.563Z,11.60
2019-03-12T13:00:20.074Z,11.70
2019-03-12T13:02:48.572Z,11.50
2019-03-12T13:05:17.488Z,11.30
2019-03-12T13:07:45.921Z,11.20
2019-03-12T13:10:28.560Z,11.40
2019-03-12T13:12:57.047Z,11.40
2019-03-12T13:15:25.579Z,11.50
2019-03-12T13:17:54.139Z,11.70
2019-03-12T13:20:22.763Z,11.60
2019-03-12T13:22:51.251Z,11.60
2019-03-12T13:25:20.215Z,11.60
2019-03-12T13:27:48.988Z,11.80
2019-03-12T13:30:23.626Z,11.60
2019-03-12T13:32:52.119Z,11.70
2019-03-12T13:35:20.844Z,11.60
2019-03-12T13:37:49.877Z,11.50
2019-03-12T13:40:23.130Z,11.50
2019-03-12T13:42:51.692Z,11.50
2019-03-12T13:45:24.984Z,11.40
2019-03-12T13:47:53.755Z,11.30
2019-03-12T13:50:22.424Z,11.40
2019-03-12T13:52:50.987Z,11.40
2019-03-12T13:55:19.677Z,11.40
2019-03-12T13:57:48.185Z,11.30
2019-03-12T14:00:22.343Z,11.30
2019-03-12T14:02:51.159Z,11.30
2019-03-12T14:05:19.676Z,11.20
2019-03-12T14:07:48.325Z,11.20
2019-03-12T14:10:22.200Z,11.20
2019-03-12T14:12:52.192Z,11.30
2019-03-12T14:15:23.722Z,11.30
2019-03-12T14:17:52.319Z,11.40
2019-03-12T14:20:46.225Z,11.30
2019-03-12T14:23:20.549Z,11.40
2019-03-12T14:25:49.491Z,11.40
2019-03-12T14:28:18.011Z,11.30
2019-03-12T14:30:46.512Z,11.30
2019-03-12T14:33:15.036Z,11.30
2019-03-12T14:35:51.422Z,11.20
2019-03-12T14:38:14.215Z,11.10
2019-03-12T14:40:42.839Z,11.20
2019-03-12T14:43:11.525Z,11.10
2019-03-12T14:45:42.799Z,11.10
2019-03-12T14:48:45.593Z,11.10
2019-03-12T14:51:19.800Z,11.10
2019-03-12T14:53:51.413Z,11.00
2019-03-12T14:56:20.075Z,11.00
2019-03-12T14:58:51.136Z,10.90
2019-03-12T15:01:18.707Z,10.90
2019-03-12T15:03:47.199Z,10.80
2019-03-12T15:06:15.648Z,10.70
2019-03-12T15:08:44.115Z,10.60
2019-03-12T15:11:12.574Z,10.60
2019-03-12T15:13:40.999Z,10.60
2019-03-12T15:16:09.458Z,10.60
2019-03-12T15:18:37.884Z,10.50
2019-03-12T15:21:06.371Z,10.50
2019-03-12T15:23:34.867Z,10.60
2019-03-12T15:26:03.312Z,10.60
2019-03-12T15:28:31.749Z,10.60
2019-03-12T15:31:02.275Z,10.70
2019-03-12T15:33:30.411Z,10.80
2019-03-12T15:35:58.875Z,10.70
2019-03-12T15:38:27.375Z,10.70
2019-03-12T15:40:56.046Z,10.70
2019-03-12T15:43:24.530Z,10.70
2019-03-12T15:45:53.050Z,10.60
2019-03-12T15:48:23.053Z,10.60
2019-03-12T15:50:51.575Z,10.60
2019-03-12T15:53:20.011Z,10.50
2019-03-12T15:55:48.446Z,10.60
2019-03-12T15:58:16.955Z,10.50
2019-03-12T16:00:46.528Z,10.50
2019-03-12T16:03:15.139Z,10.50
2019-03-12T16:05:43.617Z,10.40
2019-03-12T16:08:12.136Z,10.40
2019-03-12T16:10:40.588Z,10.40
2019-03-12T16:13:09.340Z,10.40
2019-03-12T16:15:37.999Z,10.40
2019-03-12T16:18:06.723Z,10.40
2019-03-12T16:20:38.220Z,10.40
2019-03-12T16:23:06.689Z,10.30
2019-03-12T16:25:35.113Z,10.30
2019-03-12T16:28:03.567Z,10.30
2019-03-12T16:30:32.140Z,10.40
2019-03-12T16:33:02.147Z,10.30
2019-03-12T16:35:30.686Z,10.30
2019-03-12T16:37:59.201Z,10.30
2019-03-12T16:40:27.690Z,10.30
2019-03-12T16:42:56.155Z,10.30
2019-03-12T16:45:24.649Z,10.20
2019-03-12T16:47:53.202Z,10.20
2019-03-12T16:50:21.695Z,10.20
2019-03-12T16:52:50.319Z,10.20
2019-03-12T16:55:19.575Z,10.10
2019-03-12T16:57:48.074Z,10.20
2019-03-12T17:00:18.660Z,10.10
2019-03-12T17:02:47.223Z,10.10
2019-03-12T17:05:15.930Z,10.10
2019-03-12T17:07:44.458Z,10.10
2019-03-12T17:10:18.946Z,10.10
2019-03-12T17:12:47.382Z,10.10
2019-03-12T17:15:18.919Z,10.10
2019-03-12T17:17:47.374Z,10.10
2019-03-12T17:20:16.622Z,10.00
2019-03-12T17:22:45.141Z,10.00
2019-03-12T17:25:14.063Z,10.00
2019-03-12T17:27:42.713Z,10.00
2019-03-12T17:30:21.643Z,10.00
2019-03-12T17:32:50.140Z,10.00
2019-03-12T17:35:33.265Z,10.00
2019-03-12T17:38:01.853Z,9.90
2019-03-12T17:40:30.310Z,10.00
2019-03-12T17:42:58.820Z,10.00
2019-03-12T17:45:27.361Z,10.00
2019-03-12T17:47:55.909Z,10.00
2019-03-12T17:50:26.041Z,10.00
2019-03-12T17:52:54.609Z,10.00
2019-03-12T17:55:23.141Z,10.00
2019-03-12T17:57:51.577Z,10.10
2019-03-12T18:00:22.519Z,10.00
2019-03-12T18:02:51.103Z,10.00
2019-03-12T18:05:19.696Z,10.00
2019-03-12T18:07:48.178Z,10.00
2019-03-12T18:10:17.764Z,10.00
2019-03-12T18:12:46.455Z,10.10
2019-03-12T18:15:19.800Z,10.00
2019-03-12T18:17:48.901Z,10.00
2019-03-12T18:20:19.580Z,10.00
2019-03-12T18:22:51.224Z,10.10
2019-03-12T18:25:33.645Z,10.10
2019-03-12T18:28:02.179Z,10.10
2019-03-12T18:30:30.680Z,10.20
2019-03-12T18:32:59.205Z,10.20
2019-03-12T18:35:27.655Z,10.20
2019-03-12T18:37:56.104Z,10.20
2019-03-12T18:40:26.094Z,10.20
2019-03-12T18:42:54.691Z,10.20
2019-03-12T18:45:28.071Z,10.20
2019-03-12T18:47:56.517Z,10.20
2019-03-12T18:50:25.082Z,10.20
2019-03-12T18:52:53.613Z,10.20
2019-03-12T18:55:37.829Z,10.20
2019-03-12T18:58:06.667Z,10.30
2019-03-12T19:00:36.031Z,10.30
2019-03-12T19:03:04.776Z,10.30
2019-03-12T19:05:36.257Z,10.30
2019-03-12T19:08:04.863Z,10.30
2019-03-12T19:10:33.381Z,10.30
2019-03-12T19:13:02.006Z,10.30
2019-03-12T19:15:30.667Z,10.30
2019-03-12T19:17:59.291Z,10.20
2019-03-12T19:20:32.778Z,10.30
2019-03-12T19:22:59.725Z,10.30
2019-03-12T19:25:38.363Z,10.40
2019-03-12T19:28:07.087Z,10.30
2019-03-12T19:30:35.768Z,10.30
2019-03-12T19:33:07.342Z,10.20
2019-03-12T19:35:45.795Z,10.00
2019-03-12T19:38:14.465Z,9.90
2019-03-12T19:40:47.109Z,9.90
2019-03-12T19:43:15.728Z,9.80
2019-03-12T19:45:44.298Z,9.80
2019-03-12T19:48:12.846Z,9.80
2019-03-12T19:50:41.939Z,9.80
2019-03-12T19:53:13.374Z,9.80
2019-03-12T19:55:51.934Z,9.80
2019-03-12T19:58:20.452Z,9.90
2019-03-12T20:00:49.340Z,10.00
2019-03-12T20:03:17.939Z,10.00
2019-03-12T20:05:46.648Z,10.00
2019-03-12T20:08:15.072Z,10.00
2019-03-12T20:11:01.977Z,10.10
2019-03-12T20:14:07.145Z,10.10
2019-03-12T20:17:14.164Z,10.20
2019-03-12T20:20:06.811Z,10.10
2019-03-12T20:22:47.035Z,10.10
2019-03-12T20:25:52.050Z,10.10
2019-03-12T20:28:49.356Z,10.10
2019-03-12T20:31:42.081Z,10.20
2019-03-12T20:34:48.276Z,10.20
2019-03-12T20:37:45.754Z,10.10
2019-03-12T20:40:23.053Z,10.20
2019-03-12T20:43:11.432Z,10.20
2019-03-12T20:45:54.794Z,10.20
2019-03-12T20:48:38.121Z,10.20
2019-03-12T20:51:28.119Z,10.20
2019-03-12T20:54:15.952Z,10.20
2019-03-12T20:57:04.148Z,10.20
2019-03-12T21:00:06.184Z,10.20
2019-03-12T21:03:12.447Z,10.20
2019-03-12T21:05:59.055Z,10.20
2019-03-12T21:08:30.688Z,10.20
2019-03-12T21:11:30.704Z,10.10
2019-03-12T21:14:29.533Z,10.10
2019-03-12T21:17:15.817Z,10.10
2019-03-12T21:19:56.117Z,10.00
2019-03-12T21:22:44.051Z,10.00
2019-03-12T21:25:27.472Z,10.00
2019-03-12T21:28:18.933Z,9.90
2019-03-12T21:30:47.523Z,9.60
2019-03-12T21:33:16.055Z,9.20
2019-03-12T21:35:46.521Z,8.80
2019-03-12T21:38:15.035Z,8.20
2019-03-12T21:40:43.499Z,7.60
2019-03-12T21:43:13.595Z,7.40
2019-03-12T21:45:43.654Z,7.10
2019-03-12T21:48:12.156Z,6.90
2019-03-12T21:50:44.661Z,6.70
2019-03-12T21:53:13.092Z,6.60
2019-03-12T21:55:41.555Z,6.50
2019-03-12T21:58:10.096Z,6.40
2019-03-12T22:00:38.720Z,6.40
2019-03-12T22:03:10.159Z,6.30
2019-03-12T22:05:38.655Z,6.30
2019-03-12T22:08:08.897Z,6.20
2019-03-12T22:10:37.396Z,6.30
2019-03-12T22:13:05.898Z,6.40
2019-03-12T22:15:34.650Z,6.40
2019-03-12T22:18:05.023Z,6.30
2019-03-12T22:20:33.489Z,6.30
2019-03-12T22:23:03.550Z,6.30
2019-03-12T22:25:32.086Z,6.30
2019-03-12T22:28:00.541Z,6.30
2019-03-12T22:30:29.154Z,6.40
2019-03-12T22:32:57.588Z,6.40
2019-03-12T22:35:26.081Z,6.40
2019-03-12T22:37:54.528Z,6.40
2019-03-12T22:40:22.953Z,6.40
2019-03-12T22:42:51.496Z,6.40
2019-03-12T22:45:19.933Z,6.40
2019-03-12T22:47:48.372Z,6.40
2019-03-12T22:50:17.076Z,6.40
2019-03-12T22:52:45.643Z,6.50
2019-03-12T22:55:14.616Z,6.40
2019-03-12T22:57:43.216Z,6.40
2019-03-12T23:00:16.764Z,6.40
2019-03-12T23:02:45.468Z,6.30
2019-03-12T23:05:15.493Z,6.40
2019-03-12T23:07:44.351Z,6.20
2019-03-12T23:10:15.072Z,6.20
2019-03-12T23:12:43.913Z,6.10
2019-03-12T23:15:16.814Z,6.10
2019-03-12T23:17:45.497Z,6.00
2019-03-12T23:20:19.761Z,6.00
2019-03-12T23:22:48.245Z,6.00
2019-03-12T23:25:16.835Z,5.90
2019-03-12T23:27:45.268Z,5.70
2019-03-12T23:30:22.221Z,5.60
2019-03-12T23:32:50.682Z,5.60
2019-03-12T23:35:19.193Z,5.60
2019-03-12T23:37:47.841Z,5.70
2019-03-12T23:40:17.816Z,5.70
2019-03-12T23:42:46.451Z,5.80
2019-03-12T23:45:16.351Z,5.90
2019-03-12T23:47:45.726Z,6.00
2019-03-12T23:50:18.299Z,6.00
2019-03-12T23:52:47.159Z,6.00
2019-03-12T23:55:17.748Z,6.00
2019-03-12T23:57:46.222Z,6.00
